Time;durP1;ratioP1;P1;durP2;ratioP2;P2;SDS_P1;SDS_P2;PMS_P1;PMS_P2;Temp;Humidity;BMP_temperature;BMP_pressure;BME280_temperature;BME280_humidity;BME280_pressure;Samples;Min_cycle;Max_cycle;Signal;HPM_P1;HPM_P2
2022/06/14 00:03:14;;;;;;;5.43;4.93;;;;;;;11.05;100.00;97573.06;4851435;29;20250;-63
2022/06/14 00:05:42;;;;;;;5.87;4.73;;;;;;;10.91;100.00;97572.00;4853701;29;20611;-65
2022/06/14 00:08:11;;;;;;;5.70;4.53;;;;;;;10.82;100.00;97569.41;4832379;29;20223;-63
2022/06/14 00:10:40;;;;;;;5.70;5.20;;;;;;;10.75;100.00;97580.88;4850021;29;20826;-65
2022/06/14 00:13:12;;;;;;;5.47;5.03;;;;;;;10.80;100.00;97575.91;4845127;29;20342;-62
2022/06/14 00:15:40;;;;;;;5.77;5.17;;;;;;;10.94;100.00;97582.25;4829715;29;20501;-65
2022/06/14 00:18:09;;;;;;;5.80;5.33;;;;;;;11.13;100.00;97586.25;4848245;29;20309;-62
2022/06/14 00:20:39;;;;;;;5.97;4.93;;;;;;;11.06;100.00;97582.66;4853095;29;20249;-63
2022/06/14 00:23:08;;;;;;;6.00;5.50;;;;;;;11.02;100.00;97581.38;4827981;29;20666;-62
2022/06/14 00:25:39;;;;;;;5.00;4.60;;;;;;;10.99;100.00;97586.03;4852427;29;20336;-64
2022/06/14 00:28:10;;;;;;;5.40;4.90;;;;;;;11.02;100.00;97587.53;4838261;29;20734;-62
2022/06/14 00:30:39;;;;;;;5.33;4.93;;;;;;;11.08;100.00;97591.28;4809104;29;20378;-65
2022/06/14 00:33:07;;;;;;;5.27;4.77;;;;;;;11.18;100.00;97593.69;4851334;29;20338;-62
2022/06/14 00:35:36;;;;;;;7.10;6.50;;;;;;;11.40;100.00;97590.22;4846060;29;20260;-62
2022/06/14 00:38:06;;;;;;;5.50;5.10;;;;;;;11.40;100.00;97586.72;4829921;29;20214;-65
2022/06/14 00:40:36;;;;;;;5.87;5.27;;;;;;;11.41;100.00;97583.06;4847782;29;20211;-65
2022/06/14 00:43:10;;;;;;;5.33;4.83;;;;;;;11.51;100.00;97591.56;4848140;29;20246;-64
2022/06/14 00:46:18;;;;;;;5.00;4.60;;;;;;;11.70;100.00;97584.94;4811511;29;20841;-65
2022/06/14 00:48:51;;;;;;;7.60;5.10;;;;;;;11.99;100.00;97587.81;4852665;29;20267;-65
2022/06/14 00:51:21;;;;;;;5.60;5.10;;;;;;;12.07;100.00;97589.56;4848416;29;20245;-62
2022/06/14 00:53:56;;;;;;;5.07;4.70;;;;;;;11.97;100.00;97598.59;4830181;29;20246;-64
2022/06/14 00:56:28;;;;;;;4.70;4.17;;;;;;;11.91;100.00;97587.88;4850119;29;20213;-62
2022/06/14 00:58:59;;;;;;;5.90;5.40;;;;;;;11.97;100.00;97595.13;4849466;29;20237;-65
2022/06/14 01:01:31;;;;;;;4.63;4.33;;;;;;;12.03;100.00;97583.81;4803367;29;20928;-62
2022/06/14 01:04:05;;;;;;;5.00;4.57;;;;;;;12.15;100.00;97590.28;4851705;29;20600;-64
2022/06/14 01:06:43;;;;;;;5.00;4.67;;;;;;;12.15;100.00;97590.28;4847851;29;20201;-65
2022/06/14 01:09:17;;;;;;;5.30;4.80;;;;;;;12.06;100.00;97587.91;4827970;29;20640;-62
2022/06/14 01:11:48;;;;;;;5.50;5.10;;;;;;;12.15;100.00;97584.97;4856532;29;20275;-65
2022/06/14 01:14:19;;;;;;;7.63;5.33;;;;;;;12.11;100.00;97580.22;4850921;29;20237;-64
2022/06/14 01:16:47;;;;;;;5.63;4.77;;;;;;;12.10;100.00;97592.69;4850094;29;20220;-65
2022/06/14 01:19:20;;;;;;;4.83;4.47;;;;;;;12.04;100.00;97574.84;4804174;29;20217;-62
2022/06/14 01:21:54;;;;;;;7.73;5.03;;;;;;;11.98;100.00;97586.16;4853698;29;20221;-64
2022/06/14 01:24:23;;;;;;;6.57;5.83;;;;;;;11.96;100.00;97582.88;4831006;29;20245;-64
2022/06/14 01:26:51;;;;;;;5.43;4.90;;;;;;;11.84;100.00;97585.94;4854711;29;20203;-63
2022/06/14 01:29:20;;;;;;;4.77;4.43;;;;;;;11.74;100.00;97582.75;4846022;29;20221;-62
2022/06/14 01:31:49;;;;;;;5.17;4.80;;;;;;;11.77;100.00;97590.34;4855464;29;20587;-65
2022/06/14 01:34:18;;;;;;;5.87;5.37;;;;;;;11.75;100.00;97589.72;4812007;29;20364;-62
2022/06/14 01:36:47;;;;;;;5.53;5.10;;;;;;;11.72;100.00;97593.53;4852200;29;20206;-63
2022/06/14 01:39:18;;;;;;;5.70;5.20;;;;;;;11.74;100.00;97585.41;4849008;29;20218;-63
2022/06/14 01:41:56;;;;;;;5.90;5.30;;;;;;;11.70;100.00;97590.25;4833246;29;20228;-64
2022/06/14 01:44:32;;;;;;;5.30;4.97;;;;;;;11.71;100.00;97583.13;4847894;29;20253;-62
2022/06/14 01:47:16;;;;;;;5.40;4.90;;;;;;;11.68;100.00;97586.13;4850192;29;20206;-63
2022/06/14 01:52:46;;;;;;;5.60;4.90;;;;;;;11.91;100.00;97578.09;4852860;29;20244;-62
2022/06/14 01:55:21;;;;;;;5.67;5.13;;;;;;;11.84;100.00;97587.81;4848824;29;20706;-61
2022/06/14 01:57:56;;;;;;;6.20;5.07;;;;;;;11.78;100.00;97585.88;4832401;29;20212;-61
2022/06/14 02:00:29;;;;;;;5.33;4.93;;;;;;;11.88;100.00;97586.44;4843694;29;20741;-60
2022/06/14 02:05:47;;;;;;;5.03;4.60;;;;;;;11.72;100.00;97579.44;4779131;29;20859;-63
2022/06/14 02:08:18;;;;;;;6.00;5.50;;;;;;;11.49;100.00;97577.66;4848342;29;20227;-62
2022/06/14 02:10:55;;;;;;;5.37;4.97;;;;;;;11.29;100.00;97580.84;4858498;29;20225;-65
2022/06/14 02:13:29;;;;;;;5.90;5.50;;;;;;;11.25;100.00;97582.22;4824455;29;20499;-61
2022/06/14 02:16:04;;;;;;;6.13;5.50;;;;;;;11.28;100.00;97589.81;4851438;29;21612;-64
2022/06/14 02:18:37;;;;;;;6.57;4.57;;;;;;;11.17;100.00;97592.84;4850654;29;20933;-65
2022/06/14 02:21:13;;;;;;;6.00;5.37;;;;;;;11.11;100.00;97580.31;4813096;29;20225;-65
2022/06/14 02:23:44;;;;;;;5.10;4.80;;;;;;;11.33;100.00;97586.59;4850932;29;20449;-63
2022/06/14 02:26:18;;;;;;;5.50;5.00;;;;;;;11.26;100.00;97588.31;4850077;29;20364;-65
2022/06/14 02:28:56;;;;;;;5.43;4.93;;;;;;;11.31;100.00;97593.91;4828992;29;20225;-64
2022/06/14 02:31:32;;;;;;;5.73;5.27;;;;;;;11.21;100.00;97594.19;4852535;29;20233;-64
2022/06/14 02:34:03;;;;;;;5.70;5.30;;;;;;;11.23;100.00;97593.97;4847658;29;20260;-65
2022/06/14 02:36:35;;;;;;;9.50;6.10;;;;;;;11.19;100.00;97593.53;4807461;29;20281;-64
2022/06/14 02:39:12;;;;;;;5.63;5.23;;;;;;;11.09;100.00;97583.16;4850000;29;20355;-62
2022/06/14 02:41:46;;;;;;;5.30;4.90;;;;;;;11.03;100.00;97583.88;4845731;29;20966;-62
2022/06/14 02:44:21;;;;;;;6.23;5.07;;;;;;;11.06;100.00;97594.13;4832778;29;20777;-65
2022/06/14 02:46:53;;;;;;;5.73;5.23;;;;;;;11.20;100.00;97589.03;4850990;29;20209;-64
2022/06/14 02:49:27;;;;;;;6.60;6.00;;;;;;;11.18;100.00;97583.94;4853597;29;20221;-65
2022/06/14 02:52:01;;;;;;;5.97;5.47;;;;;;;11.24;100.00;97577.91;4812078;29;20275;-65
2022/06/14 02:54:32;;;;;;;5.90;5.37;;;;;;;11.47;100.00;97582.34;4849220;29;20916;-62
2022/06/14 02:57:37;;;;;;;6.17;5.57;;;;;;;11.24;100.00;97577.06;4828803;29;20217;-61
2022/06/14 03:00:09;;;;;;;6.07;5.57;;;;;;;11.22;100.00;97577.25;4820208;29;20212;-62
2022/06/14 03:02:41;;;;;;;6.97;6.37;;;;;;;11.20;100.00;97584.56;4849201;29;20324;-62
2022/06/14 03:05:14;;;;;;;6.57;5.97;;;;;;;11.17;100.00;97586.75;4846310;29;20264;-65
2022/06/14 03:07:48;;;;;;;6.33;5.83;;;;;;;11.00;100.00;97574.44;4812749;29;20313;-62
2022/06/14 03:10:16;;;;;;;6.43;5.83;;;;;;;11.01;100.00;97583.22;4848438;29;20302;-65
2022/06/14 03:12:56;;;;;;;6.47;5.87;;;;;;;11.03;100.00;97583.03;4846950;29;20651;-62
2022/06/14 03:15:40;;;;;;;7.40;5.70;;;;;;;11.00;100.00;97579.72;4826347;29;20250;-64
2022/06/14 03:18:14;;;;;;;7.20;5.37;;;;;;;10.94;100.00;97580.44;4856720;29;20865;-65
2022/06/14 03:20:46;;;;;;;6.00;5.50;;;;;;;10.91;100.00;97578.16;4849418;29;21023;-63
2022/06/14 03:23:22;;;;;;;6.40;5.80;;;;;;;10.68;100.00;97578.94;4819201;29;20301;-64
2022/06/14 03:25:56;;;;;;;5.80;5.30;;;;;;;10.96;100.00;97581.09;4833113;29;20418;-62
2022/06/14 03:28:29;;;;;;;6.40;5.90;;;;;;;11.00;100.00;97581.56;4851153;29;21146;-63
2022/06/14 03:31:03;;;;;;;6.93;6.30;;;;;;;10.97;100.00;97595.16;4823642;29;20210;-62
2022/06/14 03:33:37;;;;;;;8.27;6.80;;;;;;;10.93;100.00;97596.50;4853057;29;20324;-63
2022/06/14 03:36:07;;;;;;;6.67;6.13;;;;;;;10.99;100.00;97587.88;4852337;29;20293;-63
2022/06/14 03:38:41;;;;;;;6.73;6.13;;;;;;;11.02;100.00;97587.53;4807368;29;20217;-63
2022/06/14 03:41:11;;;;;;;6.87;6.00;;;;;;;11.08;100.00;97592.13;4851716;29;20249;-63
2022/06/14 03:43:41;;;;;;;6.77;6.27;;;;;;;11.15;100.00;97594.84;4844782;29;20265;-62
2022/06/14 03:46:15;;;;;;;6.67;6.00;;;;;;;11.10;100.00;97590.09;4823327;29;20214;-63
2022/06/14 03:48:46;;;;;;;6.60;6.00;;;;;;;11.10;100.00;97590.09;4855016;29;20214;-61
2022/06/14 03:51:20;;;;;;;7.13;5.47;;;;;;;11.06;100.00;97594.13;4846863;29;20352;-64
2022/06/14 03:54:01;;;;;;;7.10;6.40;;;;;;;10.98;100.00;97586.19;4812325;29;20240;-64
2022/06/14 03:56:38;;;;;;;5.83;5.37;;;;;;;10.94;100.00;97587.56;4851945;29;20556;-63
2022/06/14 03:59:17;;;;;;;6.10;5.63;;;;;;;10.86;100.00;97583.16;4850784;29;20814;-62
2022/06/14 04:01:51;;;;;;;9.77;6.07;;;;;;;10.91;100.00;97586.09;4820958;29;20320;-62
2022/06/14 04:04:34;;;;;;;6.40;5.80;;;;;;;11.08;100.00;97593.94;4850825;29;20236;-63
2022/06/14 04:07:14;;;;;;;6.67;6.07;;;;;;;11.08;100.00;97588.63;4812335;29;20860;-64
2022/06/14 04:09:46;;;;;;;6.27;5.67;;;;;;;11.03;100.00;97589.16;4848539;29;20321;-59
2022/06/14 04:12:20;;;;;;;6.77;6.20;;;;;;;11.18;100.00;97593.69;4852123;29;20229;-63
2022/06/14 04:15:04;;;;;;;7.73;6.57;;;;;;;11.35;100.00;97594.38;4848731;29;20213;-64
2022/06/14 04:17:40;;;;;;;6.40;5.90;;;;;;;11.42;100.00;97603.28;4825828;29;20328;-61
2022/06/14 04:20:12;;;;;;;6.90;6.33;;;;;;;11.52;100.00;97605.69;4851325;29;20205;-62
2022/06/14 04:22:51;;;;;;;6.57;5.63;;;;;;;11.67;100.00;97603.88;4817738;29;20265;-61
2022/06/14 04:25:27;;;;;;;9.07;5.77;;;;;;;11.78;100.00;97592.00;4850245;29;20249;-61
2022/06/14 04:28:00;;;;;;;6.17;5.67;;;;;;;11.73;100.00;97591.72;4846835;29;20601;-62
2022/06/14 04:30:37;;;;;;;7.70;6.07;;;;;;;11.59;100.00;97582.72;4854509;29;20302;-61
2022/06/14 04:33:11;;;;;;;7.33;5.70;;;;;;;11.52;100.00;97581.81;4843914;29;20460;-64
2022/06/14 04:35:46;;;;;;;6.13;5.47;;;;;;;11.66;100.00;97580.19;4850012;29;20300;-61
2022/06/14 04:38:18;;;;;;;6.50;5.93;;;;;;;11.76;100.00;97582.59;4849585;29;20220;-63
2022/06/14 04:40:50;;;;;;;7.03;6.33;;;;;;;11.81;100.00;97585.50;4802227;29;20316;-60
2022/06/14 04:43:21;;;;;;;7.53;6.57;;;;;;;11.99;100.00;97582.50;4850997;29;20270;-63
2022/06/14 04:45:56;;;;;;;6.43;5.93;;;;;;;12.18;100.00;97589.13;4847838;29;20296;-60
2022/06/14 04:48:31;;;;;;;6.37;5.87;;;;;;;12.22;100.00;97589.56;4821215;29;20313;-63
2022/06/14 04:51:02;;;;;;;6.57;5.83;;;;;;;12.33;100.00;97594.41;4850911;29;20213;-59
2022/06/14 04:53:35;;;;;;;6.13;5.63;;;;;;;12.44;100.00;97595.75;4846514;29;20492;-64
2022/06/14 04:56:06;;;;;;;8.50;5.80;;;;;;;12.42;100.00;97603.09;4807709;29;20218;-62
2022/06/14 04:58:39;;;;;;;6.43;5.83;;;;;;;12.64;100.00;97605.81;4846447;29;20715;-64
2022/06/14 05:01:13;;;;;;;6.57;6.03;;;;;;;12.73;100.00;97610.00;4848116;29;20214;-64
2022/06/14 05:03:45;;;;;;;5.67;5.27;;;;;;;12.84;100.00;97598.06;4818822;29;20833;-64
2022/06/14 05:06:16;;;;;;;6.73;5.40;;;;;;;12.78;100.00;97588.19;4844868;29;20747;-61
2022/06/14 05:08:49;;;;;;;5.60;5.20;;;;;;;12.84;100.00;97598.88;4850925;29;20758;-63
2022/06/14 05:11:20;;;;;;;5.63;5.23;;;;;;;12.89;100.00;97598.31;4805928;29;20707;-59
2022/06/14 05:14:02;;;;;;;6.20;5.70;;;;;;;12.85;100.00;97597.84;4846512;29;20581;-62
2022/06/14 05:16:34;;;;;;;5.37;4.87;;;;;;;12.70;100.00;97600.59;4842168;29;20463;-63
2022/06/14 05:19:08;;;;;;;5.50;4.70;;;;;;;12.71;100.00;97602.22;4818794;29;20354;-62
2022/06/14 05:21:43;;;;;;;5.10;4.70;;;;;;;13.03;100.00;97599.28;4844991;29;20501;-64
2022/06/14 05:24:12;;;;;;;6.13;5.20;;;;;;;13.22;100.00;97589.84;4820400;29;20233;-62
2022/06/14 05:27:12;;;;;;;5.57;5.03;;;;;;;13.41;100.00;97600.84;4803764;29;22013;-64
2022/06/14 05:29:46;;;;;;;7.27;5.37;;;;;;;13.60;100.00;97591.41;4819140;29;20664;-63
2022/06/14 05:32:23;;;;;;;5.57;4.37;;;;;;;13.67;100.00;97594.97;4849586;29;22269;-61
2022/06/14 05:35:02;;;;;;;5.23;4.63;;;;;;;13.74;100.00;97593.16;4788214;29;20735;-62
2022/06/14 05:37:36;;;;;;;4.77;4.37;;;;;;;13.96;100.00;97594.94;4854579;29;20703;-62
2022/06/14 05:40:10;;;;;;;5.07;4.57;;;;;;;14.13;100.00;97595.44;4773645;29;20474;-61
2022/06/14 05:42:44;;;;;;;4.60;4.30;;;;;;;14.15;100.00;97601.41;4778359;29;20729;-61
2022/06/14 05:45:13;;;;;;;5.07;4.47;;;;;;;14.17;100.00;97592.16;4827038;29;20309;-55
2022/06/14 05:47:46;;;;;;;4.83;4.43;;;;;;;14.52;100.00;97595.81;4846195;29;20237;-56
2022/06/14 05:50:18;;;;;;;3.77;3.47;;;;;;;14.60;100.00;97598.34;4772570;29;20237;-58
2022/06/14 05:52:51;;;;;;;4.07;3.47;;;;;;;14.77;100.00;97604.13;4827904;29;20241;-57
2022/06/14 05:55:24;;;;;;;8.90;3.83;;;;;;;14.90;100.00;97598.84;4805155;29;20278;-57
2022/06/14 05:57:56;;;;;;;5.53;4.17;;;;;;;15.04;100.00;97597.03;4753226;29;20329;-53
2022/06/14 06:00:28;;;;;;;3.67;3.40;;;;;;;15.13;100.00;97599.50;4802435;29;20227;-57
2022/06/14 06:03:04;;;;;;;4.47;3.30;;;;;;;15.42;100.00;97592.97;4824221;29;20416;-57
2022/06/14 06:05:35;;;;;;;4.23;3.10;;;;;;;15.54;100.00;97598.50;4792083;29;20398;-56
2022/06/14 06:08:09;;;;;;;4.70;3.00;;;;;;;15.43;100.00;97602.63;4824601;29;20245;-55
2022/06/14 06:10:40;;;;;;;4.68;3.53;;;;;;;15.47;100.00;97600.38;4812714;29;20984;-57
2022/06/14 06:13:13;;;;;;;3.73;3.07;;;;;;;15.73;100.00;97598.72;4815552;29;20325;-58
2022/06/14 06:15:45;;;;;;;3.37;2.87;;;;;;;15.68;100.00;97602.00;4803483;29;21062;-55
2022/06/14 06:18:20;;;;;;;4.55;4.05;;;;;;;16.04;100.00;97605.25;4837056;29;20711;-57
2022/06/14 06:20:53;;;;;;;5.57;3.20;;;;;;;16.01;100.00;97606.50;4798735;29;20726;-55
2022/06/14 06:23:24;;;;;;;3.50;3.20;;;;;;;15.96;100.00;97603.66;4837940;29;20578;-58
2022/06/14 06:25:54;;;;;;;3.70;3.40;;;;;;;16.24;100.00;97602.53;4824405;29;20868;-55
2022/06/14 06:28:26;;;;;;;3.10;2.80;;;;;;;16.39;100.00;97606.84;4822266;29;20497;-59
2022/06/14 06:30:57;;;;;;;3.45;3.15;;;;;;;16.42;100.00;97606.41;4798395;29;20507;-58
2022/06/14 06:33:28;;;;;;;3.37;2.87;;;;;;;16.67;100.00;97601.16;4820721;29;20469;-59
2022/06/14 06:36:12;;;;;;;3.97;3.07;;;;;;;16.52;100.00;97604.09;4801159;29;20222;-57
2022/06/14 06:38:52;;;;;;;3.57;2.60;;;;;;;16.66;100.00;97599.50;4844382;29;20421;-56
2022/06/14 06:44:16;;;;;;;3.93;3.40;;;;;;;17.19;94.92;97609.13;4812377;29;20339;-58
2022/06/14 06:46:47;;;;;;;2.70;2.50;;;;;;;17.18;95.38;97602.13;4828612;29;20214;-57
2022/06/14 06:49:18;;;;;;;2.93;2.63;;;;;;;17.23;88.14;97601.47;4823165;29;20667;-57
2022/06/14 06:51:49;;;;;;;2.37;2.03;;;;;;;17.18;87.02;97603.97;4822243;29;20257;-56
2022/06/14 06:54:23;;;;;;;3.17;2.22;;;;;;;17.05;82.86;97608.41;4844934;29;20471;-58
2022/06/14 06:56:54;;;;;;;2.50;2.40;;;;;;;17.12;84.57;97600.34;4830518;29;20236;-59
2022/06/14 06:59:26;;;;;;;2.00;1.90;;;;;;;17.35;73.47;97602.44;4809776;29;20222;-56
2022/06/14 07:01:57;;;;;;;2.20;2.10;;;;;;;17.49;71.62;97596.97;4843181;29;20786;-63
2022/06/14 07:07:14;;;;;;;1.70;1.57;;;;;;;18.01;60.52;97610.16;4817286;29;20510;-57
2022/06/14 07:09:46;;;;;;;2.00;1.80;;;;;;;17.93;58.02;97602.38;4827557;29;20509;-56
2022/06/14 07:12:19;;;;;;;2.63;1.98;;;;;;;18.04;62.30;97606.22;4815475;29;20550;-58
2022/06/14 07:14:50;;;;;;;2.80;1.98;;;;;;;18.22;61.64;97606.22;4788732;29;20506;-58
2022/06/14 07:17:25;;;;;;;1.80;1.67;;;;;;;18.26;54.35;97613.81;4819506;29;20414;-56
2022/06/14 07:19:59;;;;;;;2.03;1.93;;;;;;;18.35;53.83;97609.78;4805556;29;20776;-57
2022/06/14 07:22:32;;;;;;;1.87;1.73;;;;;;;18.31;54.17;97614.78;4805150;29;20912;-61
2022/06/14 07:25:04;;;;;;;1.97;1.60;;;;;;;18.50;60.37;97612.91;4824922;29;20400;-60
2022/06/14 07:27:51;;;;;;;1.73;1.63;;;;;;;18.35;62.30;97612.47;4813451;29;20210;-59
2022/06/14 07:30:21;;;;;;;2.42;2.10;;;;;;;18.56;61.68;97605.00;4797977;29;20465;-58
2022/06/14 07:32:53;;;;;;;2.05;1.88;;;;;;;18.39;63.18;97610.16;4840026;29;20461;-58
2022/06/14 07:35:27;;;;;;;2.50;2.30;;;;;;;18.75;59.16;97613.84;4830577;29;20614;-59
2022/06/14 07:37:59;;;;;;;2.53;1.80;;;;;;;18.60;57.49;97596.31;4821006;29;20909;-58
2022/06/14 07:40:53;;;;;;;2.43;2.00;;;;;;;18.61;58.53;97595.25;4843342;29;20436;-54
2022/06/14 07:43:26;;;;;;;2.03;1.93;;;;;;;18.72;60.34;97592.84;4843199;29;20629;-58
2022/06/14 07:45:55;;;;;;;1.80;1.70;;;;;;;18.60;55.66;97590.94;4798952;29;21008;-58
2022/06/14 07:48:27;;;;;;;2.73;2.17;;;;;;;18.37;56.20;97592.44;4846627;29;20254;-58
2022/06/14 07:50:59;;;;;;;2.13;2.00;;;;;;;18.35;57.36;97582.97;4829632;29;22048;-58
2022/06/14 07:53:31;;;;;;;3.40;1.70;;;;;;;18.54;57.55;97582.97;4827235;29;20646;-58
2022/06/14 07:56:04;;;;;;;2.03;1.93;;;;;;;18.94;56.34;97580.56;4845043;29;20229;-58
2022/06/14 07:58:39;;;;;;;2.93;2.20;;;;;;;19.03;57.11;97582.97;4840489;29;20222;-58
2022/06/14 08:01:17;;;;;;;2.13;2.03;;;;;;;18.99;59.20;97585.28;4831940;29;20494;-56
2022/06/14 08:03:50;;;;;;;2.60;1.90;;;;;;;18.90;59.98;97581.25;4833614;29;20426;-59
2022/06/14 08:06:22;;;;;;;3.17;2.00;;;;;;;18.96;58.64;97591.06;4824658;29;20285;-58
2022/06/14 08:08:54;;;;;;;1.90;1.80;;;;;;;18.48;56.31;97585.50;4825518;29;20310;-58
2022/06/14 08:11:27;;;;;;;3.27;1.73;;;;;;;19.00;59.12;97586.09;4837631;29;20214;-58
2022/06/14 08:13:59;;;;;;;2.73;1.80;;;;;;;19.13;58.74;97587.75;4844481;29;20233;-59
2022/06/14 08:16:29;;;;;;;2.63;2.20;;;;;;;19.41;58.93;97579.06;4805587;29;20956;-56
2022/06/14 08:19:01;;;;;;;5.53;2.10;;;;;;;19.45;56.01;97582.94;4845265;29;20225;-58
2022/06/14 08:21:35;;;;;;;3.10;2.50;;;;;;;19.40;52.46;97587.34;4827301;29;20817;-58
2022/06/14 08:24:05;;;;;;;4.67;2.70;;;;;;;19.43;52.65;97593.09;4842768;29;20334;-59
2022/06/14 08:26:37;;;;;;;2.20;1.97;;;;;;;19.48;53.14;97584.31;4825489;29;20232;-58
2022/06/14 08:29:10;;;;;;;2.23;2.03;;;;;;;19.22;50.70;97579.13;4841658;29;20222;-58
2022/06/14 08:31:42;;;;;;;2.33;2.23;;;;;;;19.38;51.78;97576.84;4838876;29;20247;-58
2022/06/14 08:34:14;;;;;;;1.93;1.83;;;;;;;19.38;51.89;97579.53;4808206;29;20348;-58
2022/06/14 08:36:48;;;;;;;2.40;2.30;;;;;;;19.51;51.92;97578.50;4829985;29;20870;-57
2022/06/14 08:39:20;;;;;;;2.70;2.50;;;;;;;19.53;56.09;97582.59;4836603;29;20218;-58
2022/06/14 08:41:57;;;;;;;3.23;2.83;;;;;;;19.42;53.35;97574.50;4836171;29;20241;-58
2022/06/14 08:44:29;;;;;;;2.77;2.57;;;;;;;19.48;55.80;97581.63;4842177;29;20245;-57
2022/06/14 08:47:04;;;;;;;3.27;2.87;;;;;;;19.52;52.05;97575.56;4845428;29;20217;-58
2022/06/14 08:49:44;;;;;;;4.40;2.90;;;;;;;19.74;53.53;97576.88;4804053;29;20564;-58
2022/06/14 08:52:41;;;;;;;3.43;3.00;;;;;;;19.66;49.48;97575.34;4842850;29;20249;-58
2022/06/14 08:55:23;;;;;;;2.93;2.67;;;;;;;19.65;49.64;97571.00;4816526;29;20298;-58
2022/06/14 08:58:09;;;;;;;3.17;2.90;;;;;;;19.88;51.29;97572.06;4842501;29;20415;-60
2022/06/14 09:00:46;;;;;;;3.00;2.80;;;;;;;19.73;48.09;97573.38;4839335;29;20544;-59
2022/06/14 09:03:55;;;;;;;3.10;2.73;;;;;;;19.46;50.81;97567.59;4805494;29;21032;-58
2022/06/14 09:06:51;;;;;;;4.93;4.43;;;;;;;19.59;52.52;97567.41;4841224;29;20209;-59
2022/06/14 09:09:52;;;;;;;4.10;3.00;;;;;;;19.72;51.75;97560.16;4798731;29;20220;-57
2022/06/14 09:12:54;;;;;;;6.17;2.70;;;;;;;19.79;52.15;97569.75;4822242;29;20684;-56
2022/06/14 09:16:01;;;;;;;4.67;3.03;;;;;;;19.73;48.35;97562.63;4842021;29;20229;-59
2022/06/14 09:18:39;;;;;;;6.50;5.03;;;;;;;20.01;50.34;97569.16;4783255;29;25819;-60
2022/06/14 09:21:27;;;;;;;3.40;3.10;;;;;;;19.95;46.63;97562.03;4843187;29;20277;-57
2022/06/14 09:24:21;;;;;;;4.30;2.73;;;;;;;20.06;48.75;97565.78;4827293;29;20394;-59
2022/06/14 09:27:06;;;;;;;3.70;3.30;;;;;;;20.01;49.61;97562.97;4823580;29;20206;-55
2022/06/14 09:30:11;;;;;;;4.50;3.10;;;;;;;19.98;48.88;97564.25;4839629;29;20762;-58
2022/06/14 09:33:18;;;;;;;4.30;2.60;;;;;;;19.87;46.90;97562.38;4831340;29;20233;-58
2022/06/14 09:36:27;;;;;;;2.80;2.50;;;;;;;20.26;47.89;97565.38;4830423;29;20316;-58
2022/06/14 09:39:15;;;;;;;4.67;2.90;;;;;;;20.54;47.52;97566.50;4842192;29;20339;-59
2022/06/14 09:41:59;;;;;;;2.90;2.67;;;;;;;20.32;46.08;97561.75;4814035;29;20218;-58
2022/06/14 09:45:06;;;;;;;3.63;2.80;;;;;;;20.44;47.97;97567.09;4841047;29;20449;-53
2022/06/14 09:47:58;;;;;;;2.80;2.60;;;;;;;20.51;43.64;97561.59;4843654;29;20388;-60
2022/06/14 09:50:56;;;;;;;2.27;2.00;;;;;;;20.37;43.21;97561.03;4809117;29;20527;-58
2022/06/14 09:54:10;;;;;;;2.60;2.40;;;;;;;20.23;42.61;97561.28;4843497;29;20341;-58
2022/06/14 09:57:02;;;;;;;2.97;1.83;;;;;;;20.54;43.58;97555.72;4828081;29;20217;-58
2022/06/14 10:00:17;;;;;;;2.53;2.27;;;;;;;20.65;43.84;97554.06;4800022;29;20490;-55
2022/06/14 10:03:33;;;;;;;2.30;2.10;;;;;;;20.69;40.90;97552.50;4841015;29;20845;-60
2022/06/14 10:06:40;;;;;;;2.50;2.30;;;;;;;20.92;42.32;97548.94;4805679;29;20226;-60
2022/06/14 10:09:34;;;;;;;3.87;3.20;;;;;;;20.86;45.46;97539.13;4841089;29;20221;-60
2022/06/14 10:12:16;;;;;;;3.60;2.33;;;;;;;20.72;45.83;97546.66;4820183;29;20302;-60
2022/06/14 10:14:50;;;;;;;3.30;3.00;;;;;;;20.73;48.90;97544.75;4817608;29;20396;-59
2022/06/14 10:17:34;;;;;;;4.07;2.70;;;;;;;20.82;46.29;97543.34;4845287;29;20277;-58
2022/06/14 10:20:13;;;;;;;5.87;2.70;;;;;;;21.06;48.57;97535.97;4810278;29;20887;-59
2022/06/14 10:22:56;;;;;;;3.13;2.67;;;;;;;20.93;45.71;97541.66;4843090;29;20241;-59
2022/06/14 10:25:29;;;;;;;3.13;2.07;;;;;;;20.87;40.40;97537.22;4845773;29;20225;-60
2022/06/14 10:28:14;;;;;;;2.90;2.10;;;;;;;20.83;41.55;97536.88;4823040;29;20454;-59
2022/06/14 10:30:58;;;;;;;2.17;1.97;;;;;;;20.17;39.57;97538.03;4822408;29;20532;-60
2022/06/14 10:33:35;;;;;;;3.10;2.37;;;;;;;20.65;39.94;97537.91;4847229;29;20324;-61
2022/06/14 10:36:18;;;;;;;6.03;3.10;;;;;;;21.06;43.72;97527.06;4809277;29;21075;-60
2022/06/14 10:39:02;;;;;;;3.03;2.83;;;;;;;20.98;41.10;97527.47;4847318;29;20296;-58
2022/06/14 10:41:35;;;;;;;2.70;2.50;;;;;;;20.98;40.16;97522.88;4827372;29;20735;-60
2022/06/14 10:44:14;;;;;;;1.90;1.80;;;;;;;20.98;43.43;97530.97;4818106;29;20359;-60
2022/06/14 10:46:50;;;;;;;2.60;2.40;;;;;;;20.96;40.11;97536.59;4845520;29;20261;-60
2022/06/14 10:49:47;;;;;;;2.40;2.13;;;;;;;20.89;42.38;97535.94;4848298;29;20209;-58
2022/06/14 10:52:33;;;;;;;2.33;2.13;;;;;;;21.00;43.11;97525.34;4814403;29;21497;-58
2022/06/14 10:55:34;;;;;;;3.67;2.17;;;;;;;20.95;43.01;97518.81;4843276;29;20269;-60
2022/06/14 10:58:24;;;;;;;3.37;2.40;;;;;;;21.21;44.46;97513.03;4825220;29;20223;-60
2022/06/14 11:00:57;;;;;;;4.40;3.00;;;;;;;21.18;41.41;97517.00;4818221;29;20226;-56
2022/06/14 11:03:38;;;;;;;1.87;1.77;;;;;;;21.03;40.35;97523.00;4850539;29;20297;-59
2022/06/14 11:06:21;;;;;;;2.30;2.10;;;;;;;20.96;36.83;97500.75;4843081;29;20429;-59
2022/06/14 11:08:57;;;;;;;2.00;1.90;;;;;;;20.80;36.87;97522.06;4811317;29;20241;-58
2022/06/14 11:11:36;;;;;;;2.07;1.97;;;;;;;21.22;38.64;97511.97;4846982;29;20213;-58
2022/06/14 11:14:09;;;;;;;2.27;1.53;;;;;;;21.16;36.44;97504.88;4820398;29;20552;-60
2022/06/14 11:16:49;;;;;;;2.07;1.90;;;;;;;21.07;37.31;97491.81;4821243;29;20739;-58
2022/06/14 11:19:30;;;;;;;2.60;2.40;;;;;;;21.34;36.79;97495.72;4849606;29;20224;-55
2022/06/14 11:22:08;;;;;;;2.43;2.23;;;;;;;21.45;35.50;97507.47;4845731;29;20226;-60
2022/06/14 11:24:46;;;;;;;2.83;2.10;;;;;;;21.50;37.74;97502.97;4807184;29;20245;-59
2022/06/14 11:27:22;;;;;;;1.80;1.70;;;;;;;21.59;37.24;97497.97;4847474;29;20210;-59
2022/06/14 11:30:01;;;;;;;2.10;1.60;;;;;;;21.66;36.08;97498.63;4807976;29;20737;-58
2022/06/14 11:32:31;;;;;;;3.10;1.57;;;;;;;21.67;35.71;97496.78;4846331;29;20229;-60
2022/06/14 11:35:11;;;;;;;2.23;1.80;;;;;;;21.82;36.45;97494.28;4841327;29;20242;-60
2022/06/14 11:37:47;;;;;;;2.47;1.70;;;;;;;21.89;36.09;97488.69;4847368;29;20540;-59
2022/06/14 11:40:19;;;;;;;2.03;1.60;;;;;;;21.85;35.39;97492.13;4812178;29;20413;-58
2022/06/14 11:43:02;;;;;;;2.70;1.73;;;;;;;21.95;34.70;97494.97;4841028;29;20332;-59
2022/06/14 11:45:39;;;;;;;1.90;1.80;;;;;;;22.10;34.71;97489.78;4800535;29;20547;-59
2022/06/14 11:48:17;;;;;;;1.50;1.50;;;;;;;22.17;36.74;97481.50;4844676;29;20205;-60
2022/06/14 11:50:52;;;;;;;3.50;1.73;;;;;;;22.23;35.00;97483.19;4846080;29;20210;-59
2022/06/14 11:53:40;;;;;;;3.57;2.00;;;;;;;22.55;38.76;97487.88;4823089;29;20374;-60
2022/06/14 11:56:12;;;;;;;2.40;2.20;;;;;;;22.79;35.36;97482.16;4808877;29;20382;-61
2022/06/14 11:58:57;;;;;;;2.70;2.03;;;;;;;23.07;35.71;97476.69;4843839;29;20300;-59
2022/06/14 12:01:36;;;;;;;3.57;2.27;;;;;;;23.21;34.63;97468.97;4804518;29;20255;-59
2022/06/14 12:04:24;;;;;;;2.03;1.93;;;;;;;23.00;35.25;97468.84;4847072;29;20269;-59
2022/06/14 12:06:56;;;;;;;5.53;2.40;;;;;;;22.90;34.42;97468.72;4844124;29;20326;-59
2022/06/14 12:09:55;;;;;;;3.33;2.07;;;;;;;22.52;35.17;97463.25;4846090;29;21006;-59
2022/06/14 12:12:28;;;;;;;2.80;2.23;;;;;;;22.49;34.90;97466.47;4809061;29;20647;-59
2022/06/14 12:15:06;;;;;;;2.90;1.80;;;;;;;22.68;35.92;97459.63;4819249;29;20996;-59
2022/06/14 12:17:37;;;;;;;3.87;2.07;;;;;;;23.19;36.58;97460.31;4819557;29;20270;-59
2022/06/14 12:20:08;;;;;;;3.83;2.30;;;;;;;23.70;37.01;97462.56;4844202;29;20383;-59
2022/06/14 12:26:38;;;;;;;4.10;2.53;;;;;;;23.50;35.25;97458.69;4757059;29;20704;-55
2022/06/14 12:29:11;;;;;;;2.28;2.10;;;;;;;23.62;38.02;97463.84;4816890;29;20468;-55
2022/06/14 12:31:53;;;;;;;3.47;2.43;;;;;;;23.57;34.36;97455.72;4791162;29;20481;-54